首页
METAR-TAF:

METAR-TAF

机场 :

弗尔沙茨, 塞尔维亚

纬度: 45-09N, 经度: 021-19E, 海拔: 83米

当前天气观测

该预报发布于31分钟前的21:00 UTC
风速2节,风向多变
温度 17°C
湿度 94%
气压 1007 hPa
能见度10公里或以上
1500米以下无云,无积雨云

METAR: LYVR 062100Z AUTO VRB02KT CAVOK 17/16 Q1007

时间: 23:31 (21:31 UTC)

预报

该预报发布于4小时和31分钟前的17:00 UTC
预报有效从06日的 18点(UTC)到 07日的 18点(UTC)
风速5节,风向北转东北
能见度10公里或以上
1500米以下无云,无积雨云
成为
从 07日的 00点(UTC)到 07日的 02点(UTC)
风速12节,风向东南
短暂存在
从 07日的 03点(UTC)到 07日的 10点(UTC)
风速15节,风向东转东南,有时为25节阵风
几率 40% :
短暂存在
从 07日的 14点(UTC)到 07日的 18点(UTC)
风速25节,风向多变
能見度: 5000
散云层高于3000英尺, 积雨云.
散云层高于4000英尺
雷暴, 雨

TAF: LYVR 061700Z 0618/0718 02005KT CAVOK TX27/0713Z TN19/0703Z BECMG 0700/0702 13012KT TEMPO 0703/0710 12015G25KT PROB40 TEMPO 0714/0718 VRB25KT 5000 TSRA SCT030CB SCT040

超过4000个机场的气象观测和天气预报(METAR&TAF报告)。

可查询的气象台以黄色和红色小点在地图上表示。

将鼠标移到小点上方,可查看气象台名称。

然后点击查看天气观测和预报。

如需切换地图:点击带黑十字的绿色按钮放大地图;点击带横线的绿色按钮缩小地图;或者点击绿色箭头查看邻近地区的地图。


METAR-TAF: